sensor_id;sensor_type;location;lat;lon;timestamp;P1;durP1;ratioP1;P2;durP2;ratioP2
51883;SDS011;37915;53.254;6.598;2023-06-05T00:02:00;8.38;;;4.68;;
51883;SDS011;37915;53.254;6.598;2023-06-05T00:04:26;7.97;;;4.03;;
51883;SDS011;37915;53.254;6.598;2023-06-05T00:06:53;9.88;;;5.47;;
51883;SDS011;37915;53.254;6.598;2023-06-05T00:09:19;9.75;;;4.88;;
51883;SDS011;37915;53.254;6.598;2023-06-05T00:11:45;9.25;;;5.07;;
51883;SDS011;37915;53.254;6.598;2023-06-05T00:14:11;8.40;;;5.03;;
51883;SDS011;37915;53.254;6.598;2023-06-05T00:16:36;10.77;;;4.82;;
51883;SDS011;37915;53.254;6.598;2023-06-05T00:19:03;7.43;;;4.82;;
51883;SDS011;37915;53.254;6.598;2023-06-05T00:21:29;7.65;;;4.90;;
51883;SDS011;37915;53.254;6.598;2023-06-05T00:23:54;8.30;;;5.03;;
51883;SDS011;37915;53.254;6.598;2023-06-05T00:26:20;8.45;;;4.82;;
51883;SDS011;37915;53.254;6.598;2023-06-05T00:28:46;7.88;;;4.85;;
51883;SDS011;37915;53.254;6.598;2023-06-05T00:31:12;8.93;;;5.18;;
51883;SDS011;37915;53.254;6.598;2023-06-05T00:33:39;7.10;;;4.68;;
51883;SDS011;37915;53.254;6.598;2023-06-05T00:36:05;9.68;;;4.80;;
51883;SDS011;37915;53.254;6.598;2023-06-05T00:38:30;7.95;;;4.90;;
51883;SDS011;37915;53.254;6.598;2023-06-05T00:40:56;9.30;;;4.95;;
51883;SDS011;37915;53.254;6.598;2023-06-05T00:43:22;7.18;;;4.85;;
51883;SDS011;37915;53.254;6.598;2023-06-05T00:45:48;8.90;;;5.40;;
51883;SDS011;37915;53.254;6.598;2023-06-05T00:48:15;8.55;;;4.85;;
51883;SDS011;37915;53.254;6.598;2023-06-05T00:50:41;7.70;;;5.15;;
51883;SDS011;37915;53.254;6.598;2023-06-05T00:53:07;7.82;;;4.72;;
51883;SDS011;37915;53.254;6.598;2023-06-05T00:55:33;7.82;;;4.70;;
51883;SDS011;37915;53.254;6.598;2023-06-05T00:58:02;9.38;;;5.07;;
51883;SDS011;37915;53.254;6.598;2023-06-05T01:00:30;11.50;;;5.32;;
51883;SDS011;37915;53.254;6.598;2023-06-05T01:02:55;8.40;;;4.68;;
51883;SDS011;37915;53.254;6.598;2023-06-05T01:05:22;7.97;;;4.35;;
51883;SDS011;37915;53.254;6.598;2023-06-05T01:07:49;7.80;;;5.30;;
51883;SDS011;37915;53.254;6.598;2023-06-05T01:10:15;9.80;;;4.72;;
51883;SDS011;37915;53.254;6.598;2023-06-05T01:12:57;9.45;;;6.15;;
51883;SDS011;37915;53.254;6.598;2023-06-05T01:15:28;8.82;;;5.40;;
51883;SDS011;37915;53.254;6.598;2023-06-05T01:17:57;9.00;;;4.45;;
51883;SDS011;37915;53.254;6.598;2023-06-05T01:20:39;6.97;;;4.15;;
51883;SDS011;37915;53.254;6.598;2023-06-05T01:23:07;8.38;;;4.93;;
51883;SDS011;37915;53.254;6.598;2023-06-05T01:25:34;9.30;;;4.97;;
51883;SDS011;37915;53.254;6.598;2023-06-05T01:30:45;9.07;;;4.97;;
51883;SDS011;37915;53.254;6.598;2023-06-05T01:35:54;8.10;;;5.28;;
51883;SDS011;37915;53.254;6.598;2023-06-05T01:38:21;9.48;;;4.72;;
51883;SDS011;37915;53.254;6.598;2023-06-05T01:40:47;9.93;;;5.88;;
51883;SDS011;37915;53.254;6.598;2023-06-05T01:43:15;8.82;;;5.15;;
51883;SDS011;37915;53.254;6.598;2023-06-05T01:45:41;9.45;;;5.40;;
51883;SDS011;37915;53.254;6.598;2023-06-05T01:48:08;8.02;;;5.13;;
51883;SDS011;37915;53.254;6.598;2023-06-05T01:50:37;7.18;;;5.00;;
51883;SDS011;37915;53.254;6.598;2023-06-05T01:53:03;9.13;;;4.80;;
51883;SDS011;37915;53.254;6.598;2023-06-05T01:55:30;8.70;;;4.90;;
51883;SDS011;37915;53.254;6.598;2023-06-05T01:57:55;9.93;;;5.63;;
51883;SDS011;37915;53.254;6.598;2023-06-05T02:00:21;10.52;;;5.72;;
51883;SDS011;37915;53.254;6.598;2023-06-05T02:02:48;10.05;;;5.50;;
51883;SDS011;37915;53.254;6.598;2023-06-05T02:05:16;8.27;;;5.28;;
51883;SDS011;37915;53.254;6.598;2023-06-05T02:07:46;7.93;;;5.45;;
51883;SDS011;37915;53.254;6.598;2023-06-05T02:10:23;9.60;;;5.50;;
51883;SDS011;37915;53.254;6.598;2023-06-05T02:12:49;10.43;;;5.15;;
51883;SDS011;37915;53.254;6.598;2023-06-05T02:15:15;12.20;;;6.32;;
51883;SDS011;37915;53.254;6.598;2023-06-05T02:17:41;10.60;;;6.25;;
51883;SDS011;37915;53.254;6.598;2023-06-05T02:20:11;11.43;;;6.30;;
51883;SDS011;37915;53.254;6.598;2023-06-05T02:22:37;8.80;;;5.82;;
51883;SDS011;37915;53.254;6.598;2023-06-05T02:25:04;8.95;;;6.40;;
51883;SDS011;37915;53.254;6.598;2023-06-05T02:27:30;9.05;;;6.47;;
51883;SDS011;37915;53.254;6.598;2023-06-05T02:29:56;13.20;;;6.18;;
51883;SDS011;37915;53.254;6.598;2023-06-05T02:32:22;9.07;;;6.18;;
51883;SDS011;37915;53.254;6.598;2023-06-05T02:34:51;10.88;;;6.63;;
51883;SDS011;37915;53.254;6.598;2023-06-05T02:37:17;11.25;;;5.75;;
51883;SDS011;37915;53.254;6.598;2023-06-05T02:39:44;10.15;;;6.40;;
51883;SDS011;37915;53.254;6.598;2023-06-05T02:42:10;9.10;;;6.05;;
51883;SDS011;37915;53.254;6.598;2023-06-05T02:44:37;10.35;;;6.18;;
51883;SDS011;37915;53.254;6.598;2023-06-05T02:47:03;12.50;;;5.95;;
51883;SDS011;37915;53.254;6.598;2023-06-05T02:49:29;10.00;;;6.18;;
51883;SDS011;37915;53.254;6.598;2023-06-05T02:51:57;9.52;;;6.03;;
51883;SDS011;37915;53.254;6.598;2023-06-05T02:54:22;7.07;;;5.38;;
51883;SDS011;37915;53.254;6.598;2023-06-05T02:56:48;8.48;;;5.75;;
51883;SDS011;37915;53.254;6.598;2023-06-05T02:59:14;9.05;;;5.63;;
51883;SDS011;37915;53.254;6.598;2023-06-05T03:01:40;8.90;;;5.78;;
51883;SDS011;37915;53.254;6.598;2023-06-05T03:04:12;13.40;;;5.68;;
51883;SDS011;37915;53.254;6.598;2023-06-05T03:06:38;12.02;;;5.30;;
51883;SDS011;37915;53.254;6.598;2023-06-05T03:09:08;8.35;;;5.45;;
51883;SDS011;37915;53.254;6.598;2023-06-05T03:11:34;10.02;;;4.88;;
51883;SDS011;37915;53.254;6.598;2023-06-05T03:14:00;7.60;;;5.25;;
51883;SDS011;37915;53.254;6.598;2023-06-05T03:16:25;9.30;;;5.35;;
51883;SDS011;37915;53.254;6.598;2023-06-05T03:18:57;8.75;;;5.40;;
51883;SDS011;37915;53.254;6.598;2023-06-05T03:21:23;11.38;;;4.93;;
51883;SDS011;37915;53.254;6.598;2023-06-05T03:23:49;12.27;;;5.95;;
51883;SDS011;37915;53.254;6.598;2023-06-05T03:26:15;9.30;;;4.90;;
51883;SDS011;37915;53.254;6.598;2023-06-05T03:28:41;10.88;;;5.03;;
51883;SDS011;37915;53.254;6.598;2023-06-05T03:31:07;7.35;;;5.15;;
51883;SDS011;37915;53.254;6.598;2023-06-05T03:33:35;7.43;;;4.97;;
51883;SDS011;37915;53.254;6.598;2023-06-05T03:36:01;9.15;;;5.28;;
51883;SDS011;37915;53.254;6.598;2023-06-05T03:38:27;7.90;;;5.25;;
51883;SDS011;37915;53.254;6.598;2023-06-05T03:40:52;8.13;;;4.88;;
51883;SDS011;37915;53.254;6.598;2023-06-05T03:43:18;10.38;;;5.40;;
51883;SDS011;37915;53.254;6.598;2023-06-05T03:45:44;8.63;;;4.95;;
51883;SDS011;37915;53.254;6.598;2023-06-05T03:48:10;8.40;;;5.32;;
51883;SDS011;37915;53.254;6.598;2023-06-05T03:50:36;10.20;;;5.25;;
51883;SDS011;37915;53.254;6.598;2023-06-05T03:53:06;8.05;;;4.80;;
51883;SDS011;37915;53.254;6.598;2023-06-05T03:55:34;8.45;;;5.38;;
51883;SDS011;37915;53.254;6.598;2023-06-05T03:58:10;8.03;;;5.73;;
51883;SDS011;37915;53.254;6.598;2023-06-05T04:00:39;10.20;;;5.03;;
51883;SDS011;37915;53.254;6.598;2023-06-05T04:03:09;8.52;;;5.35;;
51883;SDS011;37915;53.254;6.598;2023-06-05T04:05:36;7.95;;;4.38;;
51883;SDS011;37915;53.254;6.598;2023-06-05T04:08:03;8.32;;;5.15;;
51883;SDS011;37915;53.254;6.598;2023-06-05T04:10:29;8.10;;;4.53;;
51883;SDS011;37915;53.254;6.598;2023-06-05T04:12:55;8.07;;;5.00;;
51883;SDS011;37915;53.254;6.598;2023-06-05T04:15:25;7.18;;;4.85;;
51883;SDS011;37915;53.254;6.598;2023-06-05T04:17:51;8.23;;;5.22;;
51883;SDS011;37915;53.254;6.598;2023-06-05T04:20:17;7.97;;;4.43;;
51883;SDS011;37915;53.254;6.598;2023-06-05T04:22:43;7.80;;;4.78;;
51883;SDS011;37915;53.254;6.598;2023-06-05T04:25:10;9.20;;;4.78;;
51883;SDS011;37915;53.254;6.598;2023-06-05T04:27:37;8.30;;;4.45;;
51883;SDS011;37915;53.254;6.598;2023-06-05T04:30:07;8.57;;;4.15;;
51883;SDS011;37915;53.254;6.598;2023-06-05T04:32:34;5.35;;;3.03;;
51883;SDS011;37915;53.254;6.598;2023-06-05T04:35:03;5.13;;;3.08;;
51883;SDS011;37915;53.254;6.598;2023-06-05T04:37:30;5.63;;;2.55;;
51883;SDS011;37915;53.254;6.598;2023-06-05T04:39:57;5.32;;;2.90;;
51883;SDS011;37915;53.254;6.598;2023-06-05T04:42:24;5.40;;;2.55;;
51883;SDS011;37915;53.254;6.598;2023-06-05T04:44:57;5.53;;;2.80;;
51883;SDS011;37915;53.254;6.598;2023-06-05T04:47:24;5.40;;;2.58;;
51883;SDS011;37915;53.254;6.598;2023-06-05T04:49:49;4.85;;;2.67;;
51883;SDS011;37915;53.254;6.598;2023-06-05T04:52:18;7.75;;;2.63;;
51883;SDS011;37915;53.254;6.598;2023-06-05T04:54:45;5.55;;;2.60;;
51883;SDS011;37915;53.254;6.598;2023-06-05T04:57:11;8.80;;;2.90;;
51883;SDS011;37915;53.254;6.598;2023-06-05T04:59:37;4.70;;;2.83;;
51883;SDS011;37915;53.254;6.598;2023-06-05T05:02:03;5.30;;;3.28;;
51883;SDS011;37915;53.254;6.598;2023-06-05T05:04:29;6.85;;;3.58;;
51883;SDS011;37915;53.254;6.598;2023-06-05T05:06:55;4.50;;;2.80;;
51883;SDS011;37915;53.254;6.598;2023-06-05T05:09:26;4.60;;;2.83;;
51883;SDS011;37915;53.254;6.598;2023-06-05T05:11:52;5.03;;;2.22;;
51883;SDS011;37915;53.254;6.598;2023-06-05T05:14:18;5.00;;;2.85;;
51883;SDS011;37915;53.254;6.598;2023-06-05T05:16:43;4.53;;;2.45;;
51883;SDS011;37915;53.254;6.598;2023-06-05T05:19:09;4.72;;;2.20;;
51883;SDS011;37915;53.254;6.598;2023-06-05T05:21:35;5.10;;;2.30;;
51883;SDS011;37915;53.254;6.598;2023-06-05T05:24:02;6.93;;;2.45;;
51883;SDS011;37915;53.254;6.598;2023-06-05T05:26:28;5.63;;;2.55;;
51883;SDS011;37915;53.254;6.598;2023-06-05T05:28:55;5.07;;;2.42;;
51883;SDS011;37915;53.254;6.598;2023-06-05T05:31:21;5.15;;;2.65;;
51883;SDS011;37915;53.254;6.598;2023-06-05T05:33:48;4.82;;;2.72;;
51883;SDS011;37915;53.254;6.598;2023-06-05T05:36:14;4.68;;;2.33;;
51883;SDS011;37915;53.254;6.598;2023-06-05T05:38:40;3.97;;;2.13;;
51883;SDS011;37915;53.254;6.598;2023-06-05T05:41:05;4.75;;;2.17;;
51883;SDS011;37915;53.254;6.598;2023-06-05T05:43:31;6.05;;;2.67;;
51883;SDS011;37915;53.254;6.598;2023-06-05T05:45:57;3.67;;;2.20;;
51883;SDS011;37915;53.254;6.598;2023-06-05T05:48:22;5.22;;;2.13;;
51883;SDS011;37915;53.254;6.598;2023-06-05T05:50:48;4.70;;;1.90;;
51883;SDS011;37915;53.254;6.598;2023-06-05T05:53:15;5.35;;;2.50;;
51883;SDS011;37915;53.254;6.598;2023-06-05T05:55:40;4.57;;;2.30;;
51883;SDS011;37915;53.254;6.598;2023-06-05T05:58:06;4.57;;;2.40;;
51883;SDS011;37915;53.254;6.598;2023-06-05T06:00:32;3.25;;;1.95;;
51883;SDS011;37915;53.254;6.598;2023-06-05T06:02:59;4.50;;;2.33;;
51883;SDS011;37915;53.254;6.598;2023-06-05T06:05:24;3.70;;;2.15;;
51883;SDS011;37915;53.254;6.598;2023-06-05T06:07:50;3.92;;;2.22;;
51883;SDS011;37915;53.254;6.598;2023-06-05T06:10:16;3.97;;;2.10;;
51883;SDS011;37915;53.254;6.598;2023-06-05T06:12:43;4.28;;;1.98;;
51883;SDS011;37915;53.254;6.598;2023-06-05T06:15:09;3.42;;;1.95;;
51883;SDS011;37915;53.254;6.598;2023-06-05T06:17:36;4.82;;;2.15;;
51883;SDS011;37915;53.254;6.598;2023-06-05T06:20:02;3.45;;;1.70;;
51883;SDS011;37915;53.254;6.598;2023-06-05T06:22:30;4.30;;;1.75;;
51883;SDS011;37915;53.254;6.598;2023-06-05T06:24:56;4.25;;;2.22;;
51883;SDS011;37915;53.254;6.598;2023-06-05T06:27:22;4.78;;;2.53;;
51883;SDS011;37915;53.254;6.598;2023-06-05T06:29:50;3.53;;;2.05;;
51883;SDS011;37915;53.254;6.598;2023-06-05T06:32:17;5.15;;;2.20;;
51883;SDS011;37915;53.254;6.598;2023-06-05T06:34:43;5.05;;;2.05;;
51883;SDS011;37915;53.254;6.598;2023-06-05T06:37:10;3.45;;;1.88;;
51883;SDS011;37915;53.254;6.598;2023-06-05T06:39:37;4.57;;;2.50;;
51883;SDS011;37915;53.254;6.598;2023-06-05T06:42:03;5.22;;;2.05;;
51883;SDS011;37915;53.254;6.598;2023-06-05T06:44:30;4.32;;;1.92;;
51883;SDS011;37915;53.254;6.598;2023-06-05T06:46:55;6.00;;;2.30;;
51883;SDS011;37915;53.254;6.598;2023-06-05T06:49:21;4.28;;;1.95;;
51883;SDS011;37915;53.254;6.598;2023-06-05T06:51:47;3.97;;;2.28;;
51883;SDS011;37915;53.254;6.598;2023-06-05T06:54:13;4.55;;;2.33;;
51883;SDS011;37915;53.254;6.598;2023-06-05T06:56:38;3.97;;;2.10;;
51883;SDS011;37915;53.254;6.598;2023-06-05T06:59:11;3.97;;;2.15;;
51883;SDS011;37915;53.254;6.598;2023-06-05T07:01:42;4.68;;;2.42;;
51883;SDS011;37915;53.254;6.598;2023-06-05T07:04:12;4.72;;;2.60;;
51883;SDS011;37915;53.254;6.598;2023-06-05T07:06:42;6.05;;;2.42;;
51883;SDS011;37915;53.254;6.598;2023-06-05T07:09:09;3.40;;;1.92;;
51883;SDS011;37915;53.254;6.598;2023-06-05T07:11:35;6.22;;;2.60;;
51883;SDS011;37915;53.254;6.598;2023-06-05T07:14:01;6.47;;;2.20;;
51883;SDS011;37915;53.254;6.598;2023-06-05T07:16:26;4.55;;;2.35;;
51883;SDS011;37915;53.254;6.598;2023-06-05T07:18:52;4.50;;;2.65;;
51883;SDS011;37915;53.254;6.598;2023-06-05T07:21:20;5.00;;;2.30;;
51883;SDS011;37915;53.254;6.598;2023-06-05T07:23:49;5.18;;;2.25;;
51883;SDS011;37915;53.254;6.598;2023-06-05T07:26:17;4.63;;;2.30;;
51883;SDS011;37915;53.254;6.598;2023-06-05T07:28:43;5.07;;;2.33;;
51883;SDS011;37915;53.254;6.598;2023-06-05T07:31:09;6.03;;;3.13;;
51883;SDS011;37915;53.254;6.598;2023-06-05T07:33:35;7.45;;;2.50;;
51883;SDS011;37915;53.254;6.598;2023-06-05T07:36:01;3.95;;;2.40;;
51883;SDS011;37915;53.254;6.598;2023-06-05T07:38:30;6.55;;;2.40;;
51883;SDS011;37915;53.254;6.598;2023-06-05T07:40:57;4.20;;;2.28;;
51883;SDS011;37915;53.254;6.598;2023-06-05T07:43:24;6.13;;;2.80;;
51883;SDS011;37915;53.254;6.598;2023-06-05T07:45:50;4.75;;;2.10;;
51883;SDS011;37915;53.254;6.598;2023-06-05T07:48:16;5.13;;;2.22;;
51883;SDS011;37915;53.254;6.598;2023-06-05T07:50:41;3.88;;;2.20;;
51883;SDS011;37915;53.254;6.598;2023-06-05T07:53:07;4.90;;;2.35;;
51883;SDS011;37915;53.254;6.598;2023-06-05T07:55:33;3.80;;;2.22;;
51883;SDS011;37915;53.254;6.598;2023-06-05T07:57:58;3.63;;;1.90;;
51883;SDS011;37915;53.254;6.598;2023-06-05T08:00:25;4.50;;;2.50;;
51883;SDS011;37915;53.254;6.598;2023-06-05T08:02:52;5.00;;;2.20;;
51883;SDS011;37915;53.254;6.598;2023-06-05T08:05:18;4.63;;;2.50;;
51883;SDS011;37915;53.254;6.598;2023-06-05T08:07:45;7.18;;;2.20;;
51883;SDS011;37915;53.254;6.598;2023-06-05T08:10:11;4.45;;;2.38;;
51883;SDS011;37915;53.254;6.598;2023-06-05T08:12:37;4.82;;;2.45;;
51883;SDS011;37915;53.254;6.598;2023-06-05T08:15:03;4.47;;;2.20;;
51883;SDS011;37915;53.254;6.598;2023-06-05T08:17:30;5.32;;;2.30;;
51883;SDS011;37915;53.254;6.598;2023-06-05T08:19:56;4.53;;;2.47;;
51883;SDS011;37915;53.254;6.598;2023-06-05T08:22:22;4.80;;;2.25;;
51883;SDS011;37915;53.254;6.598;2023-06-05T08:24:47;4.38;;;2.47;;
51883;SDS011;37915;53.254;6.598;2023-06-05T08:27:15;6.55;;;2.47;;
51883;SDS011;37915;53.254;6.598;2023-06-05T08:29:46;4.50;;;2.53;;
51883;SDS011;37915;53.254;6.598;2023-06-05T08:32:12;4.13;;;2.05;;
51883;SDS011;37915;53.254;6.598;2023-06-05T08:34:37;4.45;;;2.38;;
51883;SDS011;37915;53.254;6.598;2023-06-05T08:37:03;4.97;;;2.67;;
51883;SDS011;37915;53.254;6.598;2023-06-05T08:39:29;5.32;;;2.60;;
51883;SDS011;37915;53.254;6.598;2023-06-05T08:41:57;4.85;;;2.60;;
51883;SDS011;37915;53.254;6.598;2023-06-05T08:44:29;5.35;;;2.42;;
51883;SDS011;37915;53.254;6.598;2023-06-05T08:46:59;5.28;;;2.60;;
51883;SDS011;37915;53.254;6.598;2023-06-05T08:49:26;4.60;;;2.58;;
51883;SDS011;37915;53.254;6.598;2023-06-05T08:51:56;5.18;;;2.53;;
51883;SDS011;37915;53.254;6.598;2023-06-05T08:54:27;3.50;;;2.10;;
51883;SDS011;37915;53.254;6.598;2023-06-05T08:56:57;4.20;;;2.50;;
51883;SDS011;37915;53.254;6.598;2023-06-05T08:59:23;4.25;;;2.38;;
51883;SDS011;37915;53.254;6.598;2023-06-05T09:01:49;5.35;;;2.78;;
51883;SDS011;37915;53.254;6.598;2023-06-05T09:04:15;4.30;;;2.42;;
51883;SDS011;37915;53.254;6.598;2023-06-05T09:06:47;5.10;;;2.60;;
51883;SDS011;37915;53.254;6.598;2023-06-05T09:09:16;4.13;;;2.50;;
51883;SDS011;37915;53.254;6.598;2023-06-05T09:11:42;5.72;;;2.45;;
51883;SDS011;37915;53.254;6.598;2023-06-05T09:14:07;3.95;;;2.00;;
51883;SDS011;37915;53.254;6.598;2023-06-05T09:16:40;4.22;;;2.30;;
51883;SDS011;37915;53.254;6.598;2023-06-05T09:19:11;4.57;;;2.63;;
51883;SDS011;37915;53.254;6.598;2023-06-05T09:21:37;5.13;;;2.38;;
51883;SDS011;37915;53.254;6.598;2023-06-05T09:26:46;6.70;;;2.40;;
51883;SDS011;37915;53.254;6.598;2023-06-05T09:32:10;4.35;;;2.03;;
51883;SDS011;37915;53.254;6.598;2023-06-05T09:34:41;4.90;;;2.15;;
51883;SDS011;37915;53.254;6.598;2023-06-05T09:37:07;4.97;;;1.90;;
51883;SDS011;37915;53.254;6.598;2023-06-05T09:39:35;5.00;;;2.30;;
51883;SDS011;37915;53.254;6.598;2023-06-05T09:42:02;5.78;;;2.50;;
51883;SDS011;37915;53.254;6.598;2023-06-05T09:44:29;3.90;;;2.05;;
51883;SDS011;37915;53.254;6.598;2023-06-05T09:47:02;3.60;;;2.00;;
51883;SDS011;37915;53.254;6.598;2023-06-05T09:52:05;5.10;;;2.05;;
51883;SDS011;37915;53.254;6.598;2023-06-05T09:54:32;4.47;;;1.88;;
51883;SDS011;37915;53.254;6.598;2023-06-05T09:57:02;3.63;;;1.83;;
51883;SDS011;37915;53.254;6.598;2023-06-05T09:59:32;5.40;;;2.50;;
51883;SDS011;37915;53.254;6.598;2023-06-05T10:02:00;3.72;;;2.03;;
51883;SDS011;37915;53.254;6.598;2023-06-05T10:04:32;4.72;;;2.50;;
51883;SDS011;37915;53.254;6.598;2023-06-05T10:07:04;4.07;;;2.10;;
51883;SDS011;37915;53.254;6.598;2023-06-05T10:09:30;3.60;;;1.98;;
51883;SDS011;37915;53.254;6.598;2023-06-05T10:11:59;5.50;;;1.60;;
51883;SDS011;37915;53.254;6.598;2023-06-05T10:14:26;4.60;;;2.35;;
51883;SDS011;37915;53.254;6.598;2023-06-05T10:16:51;3.72;;;2.08;;
51883;SDS011;37915;53.254;6.598;2023-06-05T10:19:21;3.67;;;1.92;;
51883;SDS011;37915;53.254;6.598;2023-06-05T10:21:47;3.70;;;2.00;;
51883;SDS011;37915;53.254;6.598;2023-06-05T10:24:18;3.72;;;2.10;;
51883;SDS011;37915;53.254;6.598;2023-06-05T10:39:57;4.35;;;2.00;;
51883;SDS011;37915;53.254;6.598;2023-06-05T10:42:25;3.95;;;1.92;;
51883;SDS011;37915;53.254;6.598;2023-06-05T10:44:52;4.65;;;1.98;;
51883;SDS011;37915;53.254;6.598;2023-06-05T10:52:47;5.85;;;1.92;;
51883;SDS011;37915;53.254;6.598;2023-06-05T10:55:14;3.45;;;1.58;;
51883;SDS011;37915;53.254;6.598;2023-06-05T11:00:35;3.58;;;2.08;;
51883;SDS011;37915;53.254;6.598;2023-06-05T11:03:03;3.88;;;1.92;;
51883;SDS011;37915;53.254;6.598;2023-06-05T11:05:31;4.15;;;1.95;;
51883;SDS011;37915;53.254;6.598;2023-06-05T11:08:10;3.30;;;1.70;;
51883;SDS011;37915;53.254;6.598;2023-06-05T11:10:51;3.92;;;1.95;;
51883;SDS011;37915;53.254;6.598;2023-06-05T11:16:30;5.68;;;1.90;;
51883;SDS011;37915;53.254;6.598;2023-06-05T11:24:36;5.03;;;2.20;;
51883;SDS011;37915;53.254;6.598;2023-06-05T11:27:03;4.45;;;2.45;;
51883;SDS011;37915;53.254;6.598;2023-06-05T11:29:30;4.00;;;2.03;;
51883;SDS011;37915;53.254;6.598;2023-06-05T11:31:57;4.70;;;2.00;;
51883;SDS011;37915;53.254;6.598;2023-06-05T11:34:23;6.45;;;1.90;;
51883;SDS011;37915;53.254;6.598;2023-06-05T11:36:50;3.97;;;2.22;;
51883;SDS011;37915;53.254;6.598;2023-06-05T11:39:16;3.35;;;1.80;;
51883;SDS011;37915;53.254;6.598;2023-06-05T11:41:49;5.65;;;2.33;;
51883;SDS011;37915;53.254;6.598;2023-06-05T11:44:30;4.93;;;2.30;;
51883;SDS011;37915;53.254;6.598;2023-06-05T11:47:00;3.97;;;2.30;;
51883;SDS011;37915;53.254;6.598;2023-06-05T11:49:27;3.60;;;1.73;;
51883;SDS011;37915;53.254;6.598;2023-06-05T11:51:54;4.10;;;1.80;;
51883;SDS011;37915;53.254;6.598;2023-06-05T11:54:27;4.13;;;2.00;;
51883;SDS011;37915;53.254;6.598;2023-06-05T11:56:58;4.65;;;2.15;;
51883;SDS011;37915;53.254;6.598;2023-06-05T11:59:26;3.47;;;1.92;;
51883;SDS011;37915;53.254;6.598;2023-06-05T12:01:52;4.63;;;2.00;;
51883;SDS011;37915;53.254;6.598;2023-06-05T12:04:19;4.90;;;1.77;;
51883;SDS011;37915;53.254;6.598;2023-06-05T12:06:46;4.18;;;1.90;;
51883;SDS011;37915;53.254;6.598;2023-06-05T12:09:13;3.85;;;1.83;;
51883;SDS011;37915;53.254;6.598;2023-06-05T12:11:41;5.50;;;2.00;;
51883;SDS011;37915;53.254;6.598;2023-06-05T12:14:13;7.15;;;2.40;;
51883;SDS011;37915;53.254;6.598;2023-06-05T12:16:59;3.85;;;1.70;;
51883;SDS011;37915;53.254;6.598;2023-06-05T12:19:27;4.32;;;2.10;;
51883;SDS011;37915;53.254;6.598;2023-06-05T12:22:01;3.95;;;2.10;;
51883;SDS011;37915;53.254;6.598;2023-06-05T12:24:31;3.92;;;2.15;;
51883;SDS011;37915;53.254;6.598;2023-06-05T12:29:34;3.85;;;2.20;;
51883;SDS011;37915;53.254;6.598;2023-06-05T12:32:03;3.28;;;2.00;;
51883;SDS011;37915;53.254;6.598;2023-06-05T12:34:48;3.90;;;2.30;;
51883;SDS011;37915;53.254;6.598;2023-06-05T12:40:02;4.38;;;2.10;;
51883;SDS011;37915;53.254;6.598;2023-06-05T12:42:35;4.70;;;2.30;;
51883;SDS011;37915;53.254;6.598;2023-06-05T12:45:02;5.13;;;2.58;;
51883;SDS011;37915;53.254;6.598;2023-06-05T12:47:29;5.50;;;2.85;;
51883;SDS011;37915;53.254;6.598;2023-06-05T12:49:55;6.50;;;2.92;;
51883;SDS011;37915;53.254;6.598;2023-06-05T12:52:23;6.25;;;2.78;;
51883;SDS011;37915;53.254;6.598;2023-06-05T12:54:55;4.57;;;2.60;;
51883;SDS011;37915;53.254;6.598;2023-06-05T12:57:22;4.32;;;2.25;;
51883;SDS011;37915;53.254;6.598;2023-06-05T12:59:48;4.88;;;2.47;;
51883;SDS011;37915;53.254;6.598;2023-06-05T13:02:15;5.78;;;3.05;;
51883;SDS011;37915;53.254;6.598;2023-06-05T13:04:41;4.85;;;2.40;;
51883;SDS011;37915;53.254;6.598;2023-06-05T13:07:07;5.53;;;2.95;;
51883;SDS011;37915;53.254;6.598;2023-06-05T13:09:33;5.05;;;2.75;;
51883;SDS011;37915;53.254;6.598;2023-06-05T13:11:59;4.75;;;2.83;;
51883;SDS011;37915;53.254;6.598;2023-06-05T13:14:27;5.47;;;2.50;;
51883;SDS011;37915;53.254;6.598;2023-06-05T13:16:53;4.20;;;2.50;;
51883;SDS011;37915;53.254;6.598;2023-06-05T13:19:19;4.22;;;2.33;;
51883;SDS011;37915;53.254;6.598;2023-06-05T13:21:46;6.05;;;2.70;;
51883;SDS011;37915;53.254;6.598;2023-06-05T13:24:12;5.28;;;2.80;;
51883;SDS011;37915;53.254;6.598;2023-06-05T13:26:37;4.45;;;3.22;;
51883;SDS011;37915;53.254;6.598;2023-06-05T13:29:03;6.00;;;3.00;;
51883;SDS011;37915;53.254;6.598;2023-06-05T13:31:29;5.35;;;2.78;;
51883;SDS011;37915;53.254;6.598;2023-06-05T13:33:55;4.78;;;2.63;;
51883;SDS011;37915;53.254;6.598;2023-06-05T13:36:21;5.88;;;3.20;;
51883;SDS011;37915;53.254;6.598;2023-06-05T13:38:48;4.88;;;2.40;;
51883;SDS011;37915;53.254;6.598;2023-06-05T13:41:14;4.80;;;2.67;;
51883;SDS011;37915;53.254;6.598;2023-06-05T13:43:40;6.25;;;2.50;;
51883;SDS011;37915;53.254;6.598;2023-06-05T13:46:06;5.47;;;2.70;;
51883;SDS011;37915;53.254;6.598;2023-06-05T13:48:32;4.85;;;2.80;;
51883;SDS011;37915;53.254;6.598;2023-06-05T13:50:59;5.15;;;3.15;;
51883;SDS011;37915;53.254;6.598;2023-06-05T13:53:26;6.43;;;2.50;;
51883;SDS011;37915;53.254;6.598;2023-06-05T13:55:52;5.72;;;3.03;;
51883;SDS011;37915;53.254;6.598;2023-06-05T13:58:18;4.07;;;2.60;;
51883;SDS011;37915;53.254;6.598;2023-06-05T14:00:44;4.85;;;2.90;;
51883;SDS011;37915;53.254;6.598;2023-06-05T14:03:10;6.05;;;3.00;;
51883;SDS011;37915;53.254;6.598;2023-06-05T14:05:36;7.68;;;3.38;;
51883;SDS011;37915;53.254;6.598;2023-06-05T14:08:02;6.57;;;2.90;;
51883;SDS011;37915;53.254;6.598;2023-06-05T14:10:27;5.45;;;2.97;;
51883;SDS011;37915;53.254;6.598;2023-06-05T14:12:53;4.90;;;2.65;;
51883;SDS011;37915;53.254;6.598;2023-06-05T14:15:19;4.85;;;2.67;;
51883;SDS011;37915;53.254;6.598;2023-06-05T14:17:46;4.57;;;2.83;;
51883;SDS011;37915;53.254;6.598;2023-06-05T14:20:13;5.05;;;2.67;;
51883;SDS011;37915;53.254;6.598;2023-06-05T14:22:39;6.10;;;3.35;;
51883;SDS011;37915;53.254;6.598;2023-06-05T14:25:06;6.47;;;3.65;;
51883;SDS011;37915;53.254;6.598;2023-06-05T14:27:32;7.50;;;3.15;;
51883;SDS011;37915;53.254;6.598;2023-06-05T14:29:58;6.35;;;3.72;;
51883;SDS011;37915;53.254;6.598;2023-06-05T14:32:24;4.68;;;3.17;;
51883;SDS011;37915;53.254;6.598;2023-06-05T14:34:49;7.47;;;3.50;;
51883;SDS011;37915;53.254;6.598;2023-06-05T14:37:15;5.35;;;2.80;;
51883;SDS011;37915;53.254;6.598;2023-06-05T14:39:41;5.55;;;3.17;;
51883;SDS011;37915;53.254;6.598;2023-06-05T14:42:08;4.68;;;2.83;;
51883;SDS011;37915;53.254;6.598;2023-06-05T14:44:34;5.32;;;2.90;;
51883;SDS011;37915;53.254;6.598;2023-06-05T14:47:00;5.82;;;2.65;;
51883;SDS011;37915;53.254;6.598;2023-06-05T14:49:25;5.72;;;3.25;;
51883;SDS011;37915;53.254;6.598;2023-06-05T14:51:51;5.47;;;3.05;;
51883;SDS011;37915;53.254;6.598;2023-06-05T14:54:17;6.60;;;3.25;;
51883;SDS011;37915;53.254;6.598;2023-06-05T14:56:43;4.78;;;3.15;;
51883;SDS011;37915;53.254;6.598;2023-06-05T14:59:12;5.22;;;2.97;;
51883;SDS011;37915;53.254;6.598;2023-06-05T15:01:39;6.07;;;2.92;;
51883;SDS011;37915;53.254;6.598;2023-06-05T15:04:05;5.50;;;2.88;;
51883;SDS011;37915;53.254;6.598;2023-06-05T15:06:31;7.28;;;3.50;;
51883;SDS011;37915;53.254;6.598;2023-06-05T15:08:57;5.93;;;3.58;;
51883;SDS011;37915;53.254;6.598;2023-06-05T15:11:22;6.90;;;3.20;;
51883;SDS011;37915;53.254;6.598;2023-06-05T15:13:48;4.47;;;2.97;;
51883;SDS011;37915;53.254;6.598;2023-06-05T15:16:14;5.35;;;3.00;;
51883;SDS011;37915;53.254;6.598;2023-06-05T15:18:39;6.35;;;3.70;;
51883;SDS011;37915;53.254;6.598;2023-06-05T15:21:05;8.25;;;3.65;;
51883;SDS011;37915;53.254;6.598;2023-06-05T15:23:31;5.57;;;3.28;;
51883;SDS011;37915;53.254;6.598;2023-06-05T15:25:57;5.55;;;3.10;;
51883;SDS011;37915;53.254;6.598;2023-06-05T15:28:22;5.45;;;3.17;;
51883;SDS011;37915;53.254;6.598;2023-06-05T15:30:48;6.00;;;2.85;;
51883;SDS011;37915;53.254;6.598;2023-06-05T15:33:14;8.98;;;3.22;;
51883;SDS011;37915;53.254;6.598;2023-06-05T15:35:41;6.60;;;3.70;;
51883;SDS011;37915;53.254;6.598;2023-06-05T15:38:09;6.97;;;3.15;;